sensor_id;sensor_type;location;lat;lon;timestamp;pressure;altitude;pressure_sealevel;temperature;humidity
21401;BME280;18038;50.166;18.908;2023-03-29T00:04:37;98598.38;;;-4.91;53.55
21401;BME280;18038;50.166;18.908;2023-03-29T00:07:44;98602.25;;;-4.98;54.47
21401;BME280;18038;50.166;18.908;2023-03-29T00:10:58;98600.66;;;-5.01;54.57
21401;BME280;18038;50.166;18.908;2023-03-29T00:14:06;98604.00;;;-4.99;55.05
21401;BME280;18038;50.166;18.908;2023-03-29T00:17:13;98590.81;;;-5.12;55.71
21401;BME280;18038;50.166;18.908;2023-03-29T00:20:20;98601.06;;;-5.08;56.21
21401;BME280;18038;50.166;18.908;2023-03-29T00:23:26;98600.88;;;-5.05;56.27
21401;BME280;18038;50.166;18.908;2023-03-29T00:26:35;98601.72;;;-5.05;56.13
21401;BME280;18038;50.166;18.908;2023-03-29T00:29:41;98597.19;;;-5.01;56.21
21401;BME280;18038;50.166;18.908;2023-03-29T00:32:48;98582.06;;;-5.11;55.92
21401;BME280;18038;50.166;18.908;2023-03-29T00:35:55;98591.22;;;-5.03;55.99
21401;BME280;18038;50.166;18.908;2023-03-29T00:39:02;98591.63;;;-5.11;56.51
21401;BME280;18038;50.166;18.908;2023-03-29T00:42:14;98581.38;;;-5.14;56.67
21401;BME280;18038;50.166;18.908;2023-03-29T00:45:25;98593.97;;;-5.22;56.83
21401;BME280;18038;50.166;18.908;2023-03-29T00:48:37;98589.41;;;-5.35;57.60
21401;BME280;18038;50.166;18.908;2023-03-29T00:51:45;98587.91;;;-5.39;57.74
21401;BME280;18038;50.166;18.908;2023-03-29T00:54:55;98587.81;;;-5.37;57.99
21401;BME280;18038;50.166;18.908;2023-03-29T00:58:11;98586.22;;;-5.40;58.18
21401;BME280;18038;50.166;18.908;2023-03-29T01:01:27;98587.31;;;-5.44;58.48
21401;BME280;18038;50.166;18.908;2023-03-29T01:04:42;98584.84;;;-5.47;58.68
21401;BME280;18038;50.166;18.908;2023-03-29T01:07:57;98583.84;;;-5.44;59.23
21401;BME280;18038;50.166;18.908;2023-03-29T01:11:14;98571.31;;;-5.53;60.13
21401;BME280;18038;50.166;18.908;2023-03-29T01:14:32;98576.69;;;-5.57;61.01
21401;BME280;18038;50.166;18.908;2023-03-29T01:17:46;98564.34;;;-5.53;61.36
21401;BME280;18038;50.166;18.908;2023-03-29T01:21:14;98565.13;;;-5.51;61.66
21401;BME280;18038;50.166;18.908;2023-03-29T01:24:43;98560.97;;;-5.55;62.63
21401;BME280;18038;50.166;18.908;2023-03-29T01:28:10;98561.75;;;-5.53;62.58
21401;BME280;18038;50.166;18.908;2023-03-29T01:31:28;98561.16;;;-5.58;63.28
21401;BME280;18038;50.166;18.908;2023-03-29T01:34:43;98552.06;;;-5.67;63.83
21401;BME280;18038;50.166;18.908;2023-03-29T01:38:02;98553.72;;;-5.66;63.78
21401;BME280;18038;50.166;18.908;2023-03-29T01:41:13;98552.84;;;-5.65;63.98
21401;BME280;18038;50.166;18.908;2023-03-29T01:44:30;98545.94;;;-5.66;63.90
21401;BME280;18038;50.166;18.908;2023-03-29T01:47:54;98543.31;;;-5.66;64.10
21401;BME280;18038;50.166;18.908;2023-03-29T01:51:13;98542.66;;;-5.69;64.27
21401;BME280;18038;50.166;18.908;2023-03-29T01:54:29;98542.66;;;-5.69;64.63
21401;BME280;18038;50.166;18.908;2023-03-29T01:57:43;98538.44;;;-5.72;64.93
21401;BME280;18038;50.166;18.908;2023-03-29T02:00:57;98544.50;;;-5.71;65.20
21401;BME280;18038;50.166;18.908;2023-03-29T02:04:12;98542.81;;;-5.72;65.41
21401;BME280;18038;50.166;18.908;2023-03-29T02:07:25;98545.25;;;-5.69;65.35
21401;BME280;18038;50.166;18.908;2023-03-29T02:10:40;98547.19;;;-5.73;65.69
21401;BME280;18038;50.166;18.908;2023-03-29T02:13:47;98546.31;;;-5.73;66.02
21401;BME280;18038;50.166;18.908;2023-03-29T02:17:13;98542.81;;;-5.72;66.02
21401;BME280;18038;50.166;18.908;2023-03-29T02:20:27;98543.06;;;-5.77;65.97
21401;BME280;18038;50.166;18.908;2023-03-29T02:23:43;98549.03;;;-5.75;66.51
21401;BME280;18038;50.166;18.908;2023-03-29T02:26:51;98543.81;;;-5.75;66.87
21401;BME280;18038;50.166;18.908;2023-03-29T02:29:58;98548.19;;;-5.75;66.97
21401;BME280;18038;50.166;18.908;2023-03-29T02:33:16;98538.25;;;-5.85;67.14
21401;BME280;18038;50.166;18.908;2023-03-29T02:36:32;98545.66;;;-5.77;67.13
21401;BME280;18038;50.166;18.908;2023-03-29T02:39:48;98544.88;;;-5.79;67.36
21401;BME280;18038;50.166;18.908;2023-03-29T02:42:58;98544.72;;;-5.76;67.43
21401;BME280;18038;50.166;18.908;2023-03-29T02:46:07;98545.88;;;-5.82;67.75
21401;BME280;18038;50.166;18.908;2023-03-29T02:49:18;98547.16;;;-5.89;68.13
21401;BME280;18038;50.166;18.908;2023-03-29T02:52:30;98558.00;;;-5.81;67.91
21401;BME280;18038;50.166;18.908;2023-03-29T02:55:42;98559.00;;;-5.83;68.00
21401;BME280;18038;50.166;18.908;2023-03-29T02:58:48;98547.16;;;-5.89;68.23
21401;BME280;18038;50.166;18.908;2023-03-29T03:01:55;98549.75;;;-5.89;68.44
21401;BME280;18038;50.166;18.908;2023-03-29T03:05:06;98550.47;;;-5.87;68.55
21401;BME280;18038;50.166;18.908;2023-03-29T03:08:13;98552.69;;;-5.79;68.49
21401;BME280;18038;50.166;18.908;2023-03-29T03:11:21;98543.81;;;-5.75;68.24
21401;BME280;18038;50.166;18.908;2023-03-29T03:14:28;98553.53;;;-5.79;68.27
21401;BME280;18038;50.166;18.908;2023-03-29T03:17:35;98557.28;;;-5.84;68.76
21401;BME280;18038;50.166;18.908;2023-03-29T03:20:53;98556.00;;;-5.93;69.26
21401;BME280;18038;50.166;18.908;2023-03-29T03:24:01;98555.72;;;-6.04;69.60
21401;BME280;18038;50.166;18.908;2023-03-29T03:27:13;98554.78;;;-6.03;69.78
21401;BME280;18038;50.166;18.908;2023-03-29T03:30:20;98547.53;;;-6.14;70.10
21401;BME280;18038;50.166;18.908;2023-03-29T03:33:46;98549.53;;;-6.19;70.57
21401;BME280;18038;50.166;18.908;2023-03-29T03:37:24;98540.81;;;-6.18;70.64
21401;BME280;18038;50.166;18.908;2023-03-29T03:40:31;98541.41;;;-6.13;70.58
21401;BME280;18038;50.166;18.908;2023-03-29T03:43:37;98536.91;;;-6.09;70.41
21401;BME280;18038;50.166;18.908;2023-03-29T03:46:49;98540.56;;;-6.13;70.40
21401;BME280;18038;50.166;18.908;2023-03-29T03:50:11;98540.41;;;-6.10;70.30
21401;BME280;18038;50.166;18.908;2023-03-29T03:53:21;98546.03;;;-6.18;70.47
21401;BME280;18038;50.166;18.908;2023-03-29T03:56:49;98547.63;;;-6.33;70.96
21401;BME280;18038;50.166;18.908;2023-03-29T04:00:05;98550.16;;;-6.31;70.99
21401;BME280;18038;50.166;18.908;2023-03-29T04:03:28;98548.66;;;-6.37;71.23
21401;BME280;18038;50.166;18.908;2023-03-29T04:06:43;98544.19;;;-6.33;71.23
21401;BME280;18038;50.166;18.908;2023-03-29T04:10:11;98544.56;;;-6.41;71.77
21401;BME280;18038;50.166;18.908;2023-03-29T04:13:26;98544.94;;;-6.49;72.10
21401;BME280;18038;50.166;18.908;2023-03-29T04:16:46;98545.88;;;-6.50;72.80
21401;BME280;18038;50.166;18.908;2023-03-29T04:20:19;98532.78;;;-6.48;72.79
21401;BME280;18038;50.166;18.908;2023-03-29T04:23:32;98539.50;;;-6.44;72.52
21401;BME280;18038;50.166;18.908;2023-03-29T04:26:44;98538.44;;;-6.57;73.00
21401;BME280;18038;50.166;18.908;2023-03-29T04:29:56;98531.16;;;-6.68;73.45
21401;BME280;18038;50.166;18.908;2023-03-29T04:33:27;98533.34;;;-6.78;73.99
21401;BME280;18038;50.166;18.908;2023-03-29T04:36:35;98538.50;;;-6.95;74.70
21401;BME280;18038;50.166;18.908;2023-03-29T04:39:51;98535.66;;;-7.08;75.55
21401;BME280;18038;50.166;18.908;2023-03-29T04:43:00;98535.72;;;-7.10;75.76
21401;BME280;18038;50.166;18.908;2023-03-29T04:46:07;98534.66;;;-7.05;75.72
21401;BME280;18038;50.166;18.908;2023-03-29T04:49:35;98526.13;;;-6.90;75.11
21401;BME280;18038;50.166;18.908;2023-03-29T04:52:47;98533.66;;;-6.84;74.92
21401;BME280;18038;50.166;18.908;2023-03-29T04:55:53;98535.38;;;-6.84;75.08
21401;BME280;18038;50.166;18.908;2023-03-29T04:59:30;98533.56;;;-6.82;75.11
21401;BME280;18038;50.166;18.908;2023-03-29T05:02:43;98531.00;;;-6.65;74.62
21401;BME280;18038;50.166;18.908;2023-03-29T05:06:10;98532.69;;;-6.64;74.37
21401;BME280;18038;50.166;18.908;2023-03-29T05:09:16;98527.88;;;-6.54;74.12
21401;BME280;18038;50.166;18.908;2023-03-29T05:12:37;98534.47;;;-6.47;73.37
21401;BME280;18038;50.166;18.908;2023-03-29T05:15:45;98527.97;;;-6.38;73.41
21401;BME280;18038;50.166;18.908;2023-03-29T05:18:52;98534.00;;;-6.38;72.85
21401;BME280;18038;50.166;18.908;2023-03-29T05:21:59;98535.22;;;-6.28;72.27
21401;BME280;18038;50.166;18.908;2023-03-29T05:25:08;98540.28;;;-6.07;71.47
21401;BME280;18038;50.166;18.908;2023-03-29T05:28:18;98534.97;;;-5.88;70.80
21401;BME280;18038;50.166;18.908;2023-03-29T05:31:28;98536.69;;;-5.71;69.92
21401;BME280;18038;50.166;18.908;2023-03-29T05:34:34;98538.75;;;-5.45;68.52
21401;BME280;18038;50.166;18.908;2023-03-29T05:37:41;98533.97;;;-5.05;67.18
21401;BME280;18038;50.166;18.908;2023-03-29T05:40:51;98548.69;;;-4.72;65.39
21401;BME280;18038;50.166;18.908;2023-03-29T05:44:04;98552.16;;;-4.11;63.17
21401;BME280;18038;50.166;18.908;2023-03-29T05:47:18;98546.63;;;-3.33;60.44
21401;BME280;18038;50.166;18.908;2023-03-29T05:50:26;98549.03;;;-2.75;58.74
21401;BME280;18038;50.166;18.908;2023-03-29T05:53:36;98540.94;;;-2.17;57.15
21401;BME280;18038;50.166;18.908;2023-03-29T05:56:43;98539.31;;;-1.54;55.90
21401;BME280;18038;50.166;18.908;2023-03-29T05:59:53;98541.47;;;-1.10;53.71
21401;BME280;18038;50.166;18.908;2023-03-29T06:03:04;98541.22;;;-0.94;52.94
21401;BME280;18038;50.166;18.908;2023-03-29T06:06:22;98536.69;;;-0.20;50.76
21401;BME280;18038;50.166;18.908;2023-03-29T06:09:29;98544.09;;;0.44;49.41
21401;BME280;18038;50.166;18.908;2023-03-29T06:12:38;98544.56;;;1.49;47.10
21401;BME280;18038;50.166;18.908;2023-03-29T06:15:45;98543.47;;;2.16;44.11
21401;BME280;18038;50.166;18.908;2023-03-29T06:18:56;98548.34;;;2.72;42.98
21401;BME280;18038;50.166;18.908;2023-03-29T06:22:12;98556.19;;;3.24;41.55
21401;BME280;18038;50.166;18.908;2023-03-29T06:25:18;98545.81;;;3.71;40.42
21401;BME280;18038;50.166;18.908;2023-03-29T06:28:26;98548.72;;;3.58;39.79
21401;BME280;18038;50.166;18.908;2023-03-29T06:31:33;98548.00;;;3.37;40.10
21401;BME280;18038;50.166;18.908;2023-03-29T06:34:46;98542.50;;;3.79;39.19
21401;BME280;18038;50.166;18.908;2023-03-29T06:38:18;98549.28;;;4.30;37.41
21401;BME280;18038;50.166;18.908;2023-03-29T06:41:45;98553.28;;;2.96;40.29
21401;BME280;18038;50.166;18.908;2023-03-29T06:45:36;98553.22;;;3.08;39.57
21401;BME280;18038;50.166;18.908;2023-03-29T06:48:54;98550.72;;;3.16;39.37
21401;BME280;18038;50.166;18.908;2023-03-29T06:52:24;98552.84;;;2.91;39.92
21401;BME280;18038;50.166;18.908;2023-03-29T06:55:31;98555.00;;;3.67;39.69
21401;BME280;18038;50.166;18.908;2023-03-29T06:59:04;98555.47;;;3.12;39.54
21401;BME280;18038;50.166;18.908;2023-03-29T07:02:18;98564.47;;;3.69;38.68
21401;BME280;18038;50.166;18.908;2023-03-29T07:05:31;98564.69;;;2.97;39.54
21401;BME280;18038;50.166;18.908;2023-03-29T07:08:54;98557.81;;;2.54;39.68
21401;BME280;18038;50.166;18.908;2023-03-29T07:12:20;98559.63;;;2.53;39.71
21401;BME280;18038;50.166;18.908;2023-03-29T07:15:32;98569.63;;;2.08;40.37
21401;BME280;18038;50.166;18.908;2023-03-29T07:18:54;98566.53;;;2.03;40.25
21401;BME280;18038;50.166;18.908;2023-03-29T07:22:37;98563.72;;;2.15;39.92
21401;BME280;18038;50.166;18.908;2023-03-29T07:25:53;98559.75;;;2.10;39.90
21401;BME280;18038;50.166;18.908;2023-03-29T07:29:08;98558.53;;;1.93;39.97
21401;BME280;18038;50.166;18.908;2023-03-29T07:32:14;98565.47;;;1.62;40.10
21401;BME280;18038;50.166;18.908;2023-03-29T07:35:30;98553.06;;;1.53;39.51
21401;BME280;18038;50.166;18.908;2023-03-29T07:38:37;98552.50;;;2.23;38.02
21401;BME280;18038;50.166;18.908;2023-03-29T07:42:05;98558.00;;;2.10;39.10
21401;BME280;18038;50.166;18.908;2023-03-29T07:45:14;98559.63;;;2.53;37.44
21401;BME280;18038;50.166;18.908;2023-03-29T07:48:41;98553.16;;;2.15;37.69
21401;BME280;18038;50.166;18.908;2023-03-29T07:51:49;98549.09;;;2.32;38.73
21401;BME280;18038;50.166;18.908;2023-03-29T07:54:57;98565.13;;;3.02;37.87
21401;BME280;18038;50.166;18.908;2023-03-29T07:58:31;98552.47;;;4.33;35.67
21401;BME280;18038;50.166;18.908;2023-03-29T08:01:38;98550.13;;;4.21;35.90
21401;BME280;18038;50.166;18.908;2023-03-29T08:05:14;98556.47;;;4.37;34.33
21401;BME280;18038;50.166;18.908;2023-03-29T08:08:45;98548.22;;;4.60;34.83
21401;BME280;18038;50.166;18.908;2023-03-29T08:11:52;98542.28;;;5.13;34.74
21401;BME280;18038;50.166;18.908;2023-03-29T08:15:14;98544.47;;;5.45;34.21
21401;BME280;18038;50.166;18.908;2023-03-29T08:18:21;98540.47;;;5.41;33.41
21401;BME280;18038;50.166;18.908;2023-03-29T08:21:29;98531.78;;;5.67;33.59
21401;BME280;18038;50.166;18.908;2023-03-29T08:24:35;98538.38;;;6.69;33.20
21401;BME280;18038;50.166;18.908;2023-03-29T08:27:45;98528.56;;;6.95;32.16
21401;BME280;18038;50.166;18.908;2023-03-29T08:31:06;98536.88;;;7.00;32.42
21401;BME280;18038;50.166;18.908;2023-03-29T08:34:16;98536.38;;;6.63;32.64
21401;BME280;18038;50.166;18.908;2023-03-29T08:37:34;98527.78;;;6.43;32.68
21401;BME280;18038;50.166;18.908;2023-03-29T08:40:41;98532.00;;;6.09;32.64
21401;BME280;18038;50.166;18.908;2023-03-29T08:44:04;98536.13;;;5.68;35.00
21401;BME280;18038;50.166;18.908;2023-03-29T08:47:41;98521.28;;;6.37;34.81
21401;BME280;18038;50.166;18.908;2023-03-29T08:51:00;98517.16;;;7.11;32.55
21401;BME280;18038;50.166;18.908;2023-03-29T08:54:17;98515.63;;;7.43;32.28
21401;BME280;18038;50.166;18.908;2023-03-29T08:58:02;98518.00;;;8.36;30.60
21401;BME280;18038;50.166;18.908;2023-03-29T09:01:14;98512.72;;;7.87;30.84
21401;BME280;18038;50.166;18.908;2023-03-29T09:04:34;98518.63;;;8.54;30.86
21401;BME280;18038;50.166;18.908;2023-03-29T09:07:57;98521.84;;;8.17;30.46
21401;BME280;18038;50.166;18.908;2023-03-29T09:11:24;98503.88;;;7.62;29.54
21401;BME280;18038;50.166;18.908;2023-03-29T09:14:55;98515.19;;;7.88;27.95
21401;BME280;18038;50.166;18.908;2023-03-29T09:18:36;98505.91;;;7.84;29.64
21401;BME280;18038;50.166;18.908;2023-03-29T09:22:08;98498.53;;;7.03;29.94
21401;BME280;18038;50.166;18.908;2023-03-29T09:25:30;98498.25;;;7.98;29.41
21401;BME280;18038;50.166;18.908;2023-03-29T09:29:16;98494.91;;;8.04;28.44
21401;BME280;18038;50.166;18.908;2023-03-29T09:32:48;98500.31;;;9.15;27.75
21401;BME280;18038;50.166;18.908;2023-03-29T09:36:10;98480.06;;;9.29;29.32
21401;BME280;18038;50.166;18.908;2023-03-29T09:39:28;98483.81;;;10.50;26.36
21401;BME280;18038;50.166;18.908;2023-03-29T09:42:48;98479.22;;;9.60;27.04
21401;BME280;18038;50.166;18.908;2023-03-29T09:46:03;98484.47;;;8.66;27.91
21401;BME280;18038;50.166;18.908;2023-03-29T09:49:25;98487.94;;;9.23;26.67
21401;BME280;18038;50.166;18.908;2023-03-29T09:52:36;98486.28;;;10.51;23.66
21401;BME280;18038;50.166;18.908;2023-03-29T09:55:54;98483.72;;;10.58;24.53
21401;BME280;18038;50.166;18.908;2023-03-29T09:59:10;98486.06;;;10.00;27.71
21401;BME280;18038;50.166;18.908;2023-03-29T10:02:19;98480.28;;;10.12;23.65
21401;BME280;18038;50.166;18.908;2023-03-29T10:05:32;98470.53;;;10.57;21.60
21401;BME280;18038;50.166;18.908;2023-03-29T10:08:51;98475.50;;;10.89;21.83
21401;BME280;18038;50.166;18.908;2023-03-29T10:12:15;98464.78;;;10.30;22.04
21401;BME280;18038;50.166;18.908;2023-03-29T10:15:26;98466.63;;;11.04;23.31
21401;BME280;18038;50.166;18.908;2023-03-29T10:18:40;98460.69;;;10.87;22.60
21401;BME280;18038;50.166;18.908;2023-03-29T10:21:50;98463.56;;;10.18;23.80
21401;BME280;18038;50.166;18.908;2023-03-29T10:24:57;98467.66;;;9.68;18.78
21401;BME280;18038;50.166;18.908;2023-03-29T10:28:13;98462.38;;;9.82;20.95
21401;BME280;18038;50.166;18.908;2023-03-29T10:31:24;98459.63;;;9.91;22.45
21401;BME280;18038;50.166;18.908;2023-03-29T10:34:33;98464.16;;;8.73;24.16
21401;BME280;18038;50.166;18.908;2023-03-29T10:37:42;98451.25;;;9.56;22.35
21401;BME280;18038;50.166;18.908;2023-03-29T10:41:02;98448.88;;;9.84;22.96
21401;BME280;18038;50.166;18.908;2023-03-29T10:44:28;98441.59;;;11.05;22.24
21401;BME280;18038;50.166;18.908;2023-03-29T10:47:43;98439.09;;;10.88;23.11
21401;BME280;18038;50.166;18.908;2023-03-29T10:50:57;98439.69;;;10.54;23.65
21401;BME280;18038;50.166;18.908;2023-03-29T10:54:12;98427.91;;;10.78;22.92
21401;BME280;18038;50.166;18.908;2023-03-29T10:57:31;98433.16;;;10.71;24.08
21401;BME280;18038;50.166;18.908;2023-03-29T11:00:53;98424.84;;;10.81;23.69
21401;BME280;18038;50.166;18.908;2023-03-29T11:04:20;98427.63;;;10.58;24.43
21401;BME280;18038;50.166;18.908;2023-03-29T11:07:40;98414.00;;;10.53;24.59
21401;BME280;18038;50.166;18.908;2023-03-29T11:11:14;98412.88;;;10.18;25.20
21401;BME280;18038;50.166;18.908;2023-03-29T11:14:46;98407.13;;;9.91;26.54
21401;BME280;18038;50.166;18.908;2023-03-29T11:22:05;98400.47;;;8.55;28.73
21401;BME280;18038;50.166;18.908;2023-03-29T11:25:27;98388.75;;;9.35;29.71
21401;BME280;18038;50.166;18.908;2023-03-29T11:28:52;98376.25;;;9.36;28.27
21401;BME280;18038;50.166;18.908;2023-03-29T11:32:14;98375.13;;;9.07;28.49
21401;BME280;18038;50.166;18.908;2023-03-29T11:35:42;98371.72;;;9.59;29.39
21401;BME280;18038;50.166;18.908;2023-03-29T11:39:02;98380.03;;;9.41;27.56
21401;BME280;18038;50.166;18.908;2023-03-29T11:42:37;98376.75;;;8.46;28.54
21401;BME280;18038;50.166;18.908;2023-03-29T11:45:53;98367.50;;;8.25;29.97
21401;BME280;18038;50.166;18.908;2023-03-29T11:49:12;98360.16;;;8.98;29.90
21401;BME280;18038;50.166;18.908;2023-03-29T11:52:36;98345.56;;;8.15;30.63
21401;BME280;18038;50.166;18.908;2023-03-29T11:56:07;98350.56;;;8.89;29.14
21401;BME280;18038;50.166;18.908;2023-03-29T11:59:27;98347.72;;;8.59;29.25
21401;BME280;18038;50.166;18.908;2023-03-29T12:02:43;98336.94;;;8.13;30.39
21401;BME280;18038;50.166;18.908;2023-03-29T12:06:00;98343.69;;;8.63;29.05
21401;BME280;18038;50.166;18.908;2023-03-29T12:09:24;98344.16;;;8.75;29.57
21401;BME280;18038;50.166;18.908;2023-03-29T12:12:43;98336.63;;;8.79;29.25
21401;BME280;18038;50.166;18.908;2023-03-29T12:16:00;98326.50;;;8.74;28.47
21401;BME280;18038;50.166;18.908;2023-03-29T12:19:20;98338.78;;;8.83;29.48
21401;BME280;18038;50.166;18.908;2023-03-29T12:22:36;98333.50;;;9.06;28.93
21401;BME280;18038;50.166;18.908;2023-03-29T12:25:52;98323.41;;;8.93;29.37
21401;BME280;18038;50.166;18.908;2023-03-29T12:29:31;98329.22;;;8.35;30.38
21401;BME280;18038;50.166;18.908;2023-03-29T12:33:06;98321.44;;;6.95;31.71
21401;BME280;18038;50.166;18.908;2023-03-29T12:36:48;98315.84;;;8.12;31.36
21401;BME280;18038;50.166;18.908;2023-03-29T12:40:39;98318.13;;;8.54;30.78
21401;BME280;18038;50.166;18.908;2023-03-29T12:44:15;98311.78;;;7.68;30.22
21401;BME280;18038;50.166;18.908;2023-03-29T12:47:32;98303.75;;;7.93;30.51
21401;BME280;18038;50.166;18.908;2023-03-29T12:50:50;98313.25;;;8.35;31.26
21401;BME280;18038;50.166;18.908;2023-03-29T12:54:06;98307.63;;;8.21;30.70
21401;BME280;18038;50.166;18.908;2023-03-29T12:57:20;98298.72;;;8.45;31.34
21401;BME280;18038;50.166;18.908;2023-03-29T13:00:43;98291.97;;;8.58;30.28
21401;BME280;18038;50.166;18.908;2023-03-29T13:04:08;98290.59;;;8.39;29.93
21401;BME280;18038;50.166;18.908;2023-03-29T13:07:29;98293.94;;;7.93;30.13
21401;BME280;18038;50.166;18.908;2023-03-29T13:10:41;98295.50;;;7.63;29.54
21401;BME280;18038;50.166;18.908;2023-03-29T13:13:50;98283.94;;;8.03;30.29
21401;BME280;18038;50.166;18.908;2023-03-29T13:17:04;98275.81;;;7.97;30.39
21401;BME280;18038;50.166;18.908;2023-03-29T13:20:34;98281.94;;;7.41;32.13
21401;BME280;18038;50.166;18.908;2023-03-29T13:23:59;98281.78;;;7.18;32.47
21401;BME280;18038;50.166;18.908;2023-03-29T13:27:27;98272.47;;;7.55;32.00
21401;BME280;18038;50.166;18.908;2023-03-29T13:30:51;98276.94;;;7.22;32.10
21401;BME280;18038;50.166;18.908;2023-03-29T13:34:20;98268.00;;;7.48;31.85
21401;BME280;18038;50.166;18.908;2023-03-29T13:37:48;98269.81;;;7.39;31.53
21401;BME280;18038;50.166;18.908;2023-03-29T13:41:04;98266.31;;;6.81;32.29
21401;BME280;18038;50.166;18.908;2023-03-29T13:44:27;98261.31;;;6.62;32.91
21401;BME280;18038;50.166;18.908;2023-03-29T13:47:46;98251.03;;;7.32;33.16
21401;BME280;18038;50.166;18.908;2023-03-29T13:51:26;98245.91;;;6.98;32.93
21401;BME280;18038;50.166;18.908;2023-03-29T13:54:42;98248.03;;;6.62;33.49
21401;BME280;18038;50.166;18.908;2023-03-29T13:57:59;98239.09;;;7.04;32.85
21401;BME280;18038;50.166;18.908;2023-03-29T14:01:14;98234.97;;;6.93;32.38
21401;BME280;18038;50.166;18.908;2023-03-29T14:04:36;98247.75;;;6.97;34.08
21401;BME280;18038;50.166;18.908;2023-03-29T14:07:53;98245.56;;;6.60;32.63
21401;BME280;18038;50.166;18.908;2023-03-29T14:11:03;98238.78;;;6.82;32.56
21401;BME280;18038;50.166;18.908;2023-03-29T14:14:13;98240.09;;;6.70;31.80
21401;BME280;18038;50.166;18.908;2023-03-29T14:17:21;98235.13;;;7.08;32.95
21401;BME280;18038;50.166;18.908;2023-03-29T14:20:33;98233.47;;;6.82;33.35
21401;BME280;18038;50.166;18.908;2023-03-29T14:24:01;98234.75;;;6.45;33.06
21401;BME280;18038;50.166;18.908;2023-03-29T14:27:11;98231.09;;;6.46;32.85
21401;BME280;18038;50.166;18.908;2023-03-29T14:30:23;98223.09;;;6.13;33.77
21401;BME280;18038;50.166;18.908;2023-03-29T14:33:32;98223.38;;;6.02;33.98
21401;BME280;18038;50.166;18.908;2023-03-29T14:36:43;98219.78;;;5.77;34.11
21401;BME280;18038;50.166;18.908;2023-03-29T14:39:54;98205.25;;;5.81;35.01
21401;BME280;18038;50.166;18.908;2023-03-29T14:43:05;98212.50;;;5.71;35.21
21401;BME280;18038;50.166;18.908;2023-03-29T14:46:20;98196.75;;;5.69;35.08
21401;BME280;18038;50.166;18.908;2023-03-29T14:49:28;98199.50;;;5.94;34.42
21401;BME280;18038;50.166;18.908;2023-03-29T14:52:36;98206.38;;;6.29;35.11
21401;BME280;18038;50.166;18.908;2023-03-29T14:55:48;98199.41;;;6.28;34.08
21401;BME280;18038;50.166;18.908;2023-03-29T14:59:27;98198.19;;;6.06;34.15
21401;BME280;18038;50.166;18.908;2023-03-29T15:02:48;98193.94;;;6.30;33.64
21401;BME280;18038;50.166;18.908;2023-03-29T15:05:58;98195.44;;;6.41;33.70
21401;BME280;18038;50.166;18.908;2023-03-29T15:09:22;98183.84;;;6.42;33.43
21401;BME280;18038;50.166;18.908;2023-03-29T15:12:36;98191.25;;;6.05;33.46
21401;BME280;18038;50.166;18.908;2023-03-29T15:15:51;98194.84;;;5.96;33.97
21401;BME280;18038;50.166;18.908;2023-03-29T15:19:04;98193.59;;;6.33;34.43
21401;BME280;18038;50.166;18.908;2023-03-29T15:22:11;98183.66;;;6.27;34.53
21401;BME280;18038;50.166;18.908;2023-03-29T15:25:19;98186.78;;;6.22;34.97
21401;BME280;18038;50.166;18.908;2023-03-29T15:28:31;98182.47;;;6.13;33.95
21401;BME280;18038;50.166;18.908;2023-03-29T15:31:39;98184.94;;;6.15;34.23
21401;BME280;18038;50.166;18.908;2023-03-29T15:34:57;98186.31;;;6.19;33.73
21401;BME280;18038;50.166;18.908;2023-03-29T15:38:09;98181.59;;;6.04;33.64
21401;BME280;18038;50.166;18.908;2023-03-29T15:41:18;98172.38;;;5.58;34.20
21401;BME280;18038;50.166;18.908;2023-03-29T15:44:32;98173.69;;;5.62;33.90
21401;BME280;18038;50.166;18.908;2023-03-29T15:47:40;98167.03;;;5.50;34.09
21401;BME280;18038;50.166;18.908;2023-03-29T15:50:47;98170.88;;;5.63;34.02
21401;BME280;18038;50.166;18.908;2023-03-29T15:53:58;98159.91;;;5.50;33.22
21401;BME280;18038;50.166;18.908;2023-03-29T15:57:13;98160.91;;;5.49;33.86
21401;BME280;18038;50.166;18.908;2023-03-29T16:00:29;98162.28;;;5.35;34.50
21401;BME280;18038;50.166;18.908;2023-03-29T16:03:35;98158.53;;;5.46;34.99
21401;BME280;18038;50.166;18.908;2023-03-29T16:06:50;98164.31;;;5.41;34.85
21401;BME280;18038;50.166;18.908;2023-03-29T16:10:08;98156.44;;;5.23;35.18
21401;BME280;18038;50.166;18.908;2023-03-29T16:13:15;98150.88;;;5.09;35.56
21401;BME280;18038;50.166;18.908;2023-03-29T16:16:30;98147.28;;;5.10;35.92
21401;BME280;18038;50.166;18.908;2023-03-29T16:19:38;98147.91;;;5.12;36.13
21401;BME280;18038;50.166;18.908;2023-03-29T16:22:45;98148.50;;;5.23;36.22
21401;BME280;18038;50.166;18.908;2023-03-29T16:25:52;98145.06;;;5.31;35.71
21401;BME280;18038;50.166;18.908;2023-03-29T16:29:00;98139.84;;;5.13;35.86
21401;BME280;18038;50.166;18.908;2023-03-29T16:32:10;98148.78;;;5.12;35.89
21401;BME280;18038;50.166;18.908;2023-03-29T16:35:23;98153.38;;;5.10;36.49
21401;BME280;18038;50.166;18.908;2023-03-29T16:38:32;98155.66;;;5.05;36.03
21401;BME280;18038;50.166;18.908;2023-03-29T16:41:39;98147.28;;;5.10;36.21
21401;BME280;18038;50.166;18.908;2023-03-29T16:44:47;98154.25;;;5.19;35.92
21401;BME280;18038;50.166;18.908;2023-03-29T16:47:56;98153.78;;;5.23;35.69
21401;BME280;18038;50.166;18.908;2023-03-29T16:51:05;98149.13;;;5.17;36.01
21401;BME280;18038;50.166;18.908;2023-03-29T16:54:13;98156.41;;;5.15;35.98
21401;BME280;18038;50.166;18.908;2023-03-29T16:57:28;98156.97;;;5.01;36.61
21401;BME280;18038;50.166;18.908;2023-03-29T17:00:39;98159.59;;;5.01;36.39
21401;BME280;18038;50.166;18.908;2023-03-29T17:03:53;98160.03;;;4.88;36.92
21401;BME280;18038;50.166;18.908;2023-03-29T17:06:59;98160.56;;;4.92;37.17
21401;BME280;18038;50.166;18.908;2023-03-29T17:10:11;98159.81;;;4.81;37.63
21401;BME280;18038;50.166;18.908;2023-03-29T17:13:24;98157.84;;;4.84;37.38
21401;BME280;18038;50.166;18.908;2023-03-29T17:16:32;98166.75;;;4.82;37.96
21401;BME280;18038;50.166;18.908;2023-03-29T17:19:40;98167.13;;;4.88;38.67